sensor_id;sensor_type;location;lat;lon;timestamp;pressure;altitude;pressure_sealevel;temperature;humidity
81274;BME280;70753;47.908;11.274;2023-07-28T00:00:15;94274.09;;;17.88;62.46
81274;BME280;70753;47.908;11.274;2023-07-28T00:02:40;94273.75;;;17.90;61.36
81274;BME280;70753;47.908;11.274;2023-07-28T00:05:06;94271.97;;;17.82;62.39
81274;BME280;70753;47.908;11.274;2023-07-28T00:07:33;94275.56;;;17.86;61.81
81274;BME280;70753;47.908;11.274;2023-07-28T00:09:59;94273.34;;;17.76;62.51
81274;BME280;70753;47.908;11.274;2023-07-28T00:12:24;94273.88;;;17.81;62.51
81274;BME280;70753;47.908;11.274;2023-07-28T00:14:50;94266.47;;;17.78;62.47
81274;BME280;70753;47.908;11.274;2023-07-28T00:17:16;94274.41;;;17.87;62.19
81274;BME280;70753;47.908;11.274;2023-07-28T00:19:42;94276.09;;;17.91;62.10
81274;BME280;70753;47.908;11.274;2023-07-28T00:22:08;94269.50;;;17.89;61.91
81274;BME280;70753;47.908;11.274;2023-07-28T00:24:33;94270.84;;;17.83;62.48
81274;BME280;70753;47.908;11.274;2023-07-28T00:26:59;94275.53;;;17.98;60.40
81274;BME280;70753;47.908;11.274;2023-07-28T00:29:24;94273.09;;;17.81;60.99
81274;BME280;70753;47.908;11.274;2023-07-28T00:31:50;94266.47;;;17.78;60.57
81274;BME280;70753;47.908;11.274;2023-07-28T00:34:17;94267.16;;;17.63;61.43
81274;BME280;70753;47.908;11.274;2023-07-28T00:36:43;94269.53;;;17.52;62.26
81274;BME280;70753;47.908;11.274;2023-07-28T00:39:08;94270.66;;;17.51;62.64
81274;BME280;70753;47.908;11.274;2023-07-28T00:41:34;94256.41;;;17.51;62.85
81274;BME280;70753;47.908;11.274;2023-07-28T00:44:00;94267.41;;;17.58;62.65
81274;BME280;70753;47.908;11.274;2023-07-28T00:46:26;94270.09;;;17.58;62.58
81274;BME280;70753;47.908;11.274;2023-07-28T00:48:52;94265.50;;;17.58;62.92
81274;BME280;70753;47.908;11.274;2023-07-28T00:51:20;94265.38;;;17.67;62.58
81274;BME280;70753;47.908;11.274;2023-07-28T00:53:46;94262.31;;;17.44;63.67
81274;BME280;70753;47.908;11.274;2023-07-28T00:56:11;94265.06;;;17.56;63.00
81274;BME280;70753;47.908;11.274;2023-07-28T00:58:37;94265.91;;;17.48;63.10
81274;BME280;70753;47.908;11.274;2023-07-28T01:01:03;94263.91;;;17.45;63.39
81274;BME280;70753;47.908;11.274;2023-07-28T01:03:28;94267.97;;;17.51;63.03
81274;BME280;70753;47.908;11.274;2023-07-28T01:06:00;94273.78;;;17.41;63.19
81274;BME280;70753;47.908;11.274;2023-07-28T01:08:37;94269.41;;;17.49;63.01
81274;BME280;70753;47.908;11.274;2023-07-28T01:11:04;94267.97;;;17.51;63.01
81274;BME280;70753;47.908;11.274;2023-07-28T01:13:30;94273.47;;;17.55;63.24
81274;BME280;70753;47.908;11.274;2023-07-28T01:15:57;94264.81;;;17.49;62.46
81274;BME280;70753;47.908;11.274;2023-07-28T01:18:22;94270.75;;;17.43;62.79
81274;BME280;70753;47.908;11.274;2023-07-28T01:20:50;94269.06;;;17.38;62.82
81274;BME280;70753;47.908;11.274;2023-07-28T01:23:19;94268.84;;;17.31;63.21
81274;BME280;70753;47.908;11.274;2023-07-28T01:25:59;94257.84;;;17.24;63.53
81274;BME280;70753;47.908;11.274;2023-07-28T01:28:35;94270.88;;;17.34;63.12
81274;BME280;70753;47.908;11.274;2023-07-28T01:31:02;94261.66;;;17.35;61.88
81274;BME280;70753;47.908;11.274;2023-07-28T01:33:28;94263.56;;;17.35;61.72
81274;BME280;70753;47.908;11.274;2023-07-28T01:35:54;94259.63;;;17.20;62.52
81274;BME280;70753;47.908;11.274;2023-07-28T01:38:19;94273.53;;;17.10;63.74
81274;BME280;70753;47.908;11.274;2023-07-28T01:40:44;94266.34;;;17.02;64.08
81274;BME280;70753;47.908;11.274;2023-07-28T01:43:11;94269.84;;;17.15;63.46
81274;BME280;70753;47.908;11.274;2023-07-28T01:45:39;94271.44;;;17.16;63.82
81274;BME280;70753;47.908;11.274;2023-07-28T01:48:05;94274.22;;;17.07;63.80
81274;BME280;70753;47.908;11.274;2023-07-28T01:50:31;94272.19;;;17.04;64.33
81274;BME280;70753;47.908;11.274;2023-07-28T01:52:56;94261.97;;;16.85;64.59
81274;BME280;70753;47.908;11.274;2023-07-28T01:55:22;94256.69;;;16.89;64.79
81274;BME280;70753;47.908;11.274;2023-07-28T01:58:01;94267.69;;;16.96;64.52
81274;BME280;70753;47.908;11.274;2023-07-28T02:00:27;94274.44;;;17.02;64.30
81274;BME280;70753;47.908;11.274;2023-07-28T02:02:53;94263.06;;;16.97;64.56
81274;BME280;70753;47.908;11.274;2023-07-28T02:05:19;94262.72;;;16.86;65.29
81274;BME280;70753;47.908;11.274;2023-07-28T02:07:45;94260.28;;;16.93;64.76
81274;BME280;70753;47.908;11.274;2023-07-28T02:10:11;94258.47;;;16.97;64.47
81274;BME280;70753;47.908;11.274;2023-07-28T02:12:36;94260.63;;;16.92;64.48
81274;BME280;70753;47.908;11.274;2023-07-28T02:15:02;94252.09;;;16.90;64.63
81274;BME280;70753;47.908;11.274;2023-07-28T02:17:27;94255.28;;;16.71;65.65
81274;BME280;70753;47.908;11.274;2023-07-28T02:19:55;94256.88;;;16.60;65.55
81274;BME280;70753;47.908;11.274;2023-07-28T02:22:21;94255.97;;;16.68;65.60
81274;BME280;70753;47.908;11.274;2023-07-28T02:24:46;94250.59;;;16.68;65.46
81274;BME280;70753;47.908;11.274;2023-07-28T02:27:11;94256.59;;;16.53;66.19
81274;BME280;70753;47.908;11.274;2023-07-28T02:29:37;94245.06;;;16.64;65.63
81274;BME280;70753;47.908;11.274;2023-07-28T02:32:02;94255.75;;;16.73;65.31
81274;BME280;70753;47.908;11.274;2023-07-28T02:34:29;94255.84;;;16.64;65.33
81274;BME280;70753;47.908;11.274;2023-07-28T02:36:55;94254.41;;;16.67;65.31
81274;BME280;70753;47.908;11.274;2023-07-28T02:39:21;94249.00;;;16.67;65.37
81274;BME280;70753;47.908;11.274;2023-07-28T02:41:46;94244.75;;;16.66;65.55
81274;BME280;70753;47.908;11.274;2023-07-28T02:44:12;94247.00;;;16.64;65.58
81274;BME280;70753;47.908;11.274;2023-07-28T02:46:38;94253.59;;;16.66;65.34
81274;BME280;70753;47.908;11.274;2023-07-28T02:49:03;94255.28;;;16.71;65.04
81274;BME280;70753;47.908;11.274;2023-07-28T02:51:29;94250.16;;;16.78;64.91
81274;BME280;70753;47.908;11.274;2023-07-28T02:53:56;94249.59;;;16.72;65.19
81274;BME280;70753;47.908;11.274;2023-07-28T02:56:21;94252.38;;;16.64;65.43
81274;BME280;70753;47.908;11.274;2023-07-28T02:58:47;94250.44;;;16.64;65.53
81274;BME280;70753;47.908;11.274;2023-07-28T03:01:12;94262.66;;;16.50;66.17
81274;BME280;70753;47.908;11.274;2023-07-28T03:03:37;94255.28;;;16.59;65.47
81274;BME280;70753;47.908;11.274;2023-07-28T03:06:03;94248.91;;;16.63;65.28
81274;BME280;70753;47.908;11.274;2023-07-28T03:08:28;94253.41;;;16.71;65.18
81274;BME280;70753;47.908;11.274;2023-07-28T03:10:57;94256.53;;;16.61;65.18
81274;BME280;70753;47.908;11.274;2023-07-28T03:13:23;94252.84;;;16.45;66.25
81274;BME280;70753;47.908;11.274;2023-07-28T03:15:48;94248.66;;;16.56;65.52
81274;BME280;70753;47.908;11.274;2023-07-28T03:18:14;94243.16;;;16.53;65.37
81274;BME280;70753;47.908;11.274;2023-07-28T03:20:39;94248.78;;;16.60;65.43
81274;BME280;70753;47.908;11.274;2023-07-28T03:23:04;94248.16;;;16.75;64.87
81274;BME280;70753;47.908;11.274;2023-07-28T03:25:30;94255.72;;;16.61;65.48
81274;BME280;70753;47.908;11.274;2023-07-28T03:27:57;94251.56;;;16.31;66.19
81274;BME280;70753;47.908;11.274;2023-07-28T03:30:22;94254.84;;;16.69;64.76
81274;BME280;70753;47.908;11.274;2023-07-28T03:32:48;94278.84;;;16.41;65.67
81274;BME280;70753;47.908;11.274;2023-07-28T03:35:14;94265.59;;;16.57;65.17
81274;BME280;70753;47.908;11.274;2023-07-28T03:37:40;94274.06;;;16.47;65.97
81274;BME280;70753;47.908;11.274;2023-07-28T03:40:07;94275.03;;;16.63;65.49
81274;BME280;70753;47.908;11.274;2023-07-28T03:42:32;94274.81;;;16.68;65.45
81274;BME280;70753;47.908;11.274;2023-07-28T03:44:59;94273.72;;;16.81;65.14
81274;BME280;70753;47.908;11.274;2023-07-28T03:47:25;94271.50;;;16.83;65.53
81274;BME280;70753;47.908;11.274;2023-07-28T03:49:50;94274.63;;;16.85;65.26
81274;BME280;70753;47.908;11.274;2023-07-28T03:52:17;94271.63;;;16.54;66.31
81274;BME280;70753;47.908;11.274;2023-07-28T03:54:42;94269.59;;;16.83;65.88
81274;BME280;70753;47.908;11.274;2023-07-28T03:57:10;94265.47;;;16.98;65.50
81274;BME280;70753;47.908;11.274;2023-07-28T03:59:36;94268.84;;;17.07;65.30
81274;BME280;70753;47.908;11.274;2023-07-28T04:02:04;94268.38;;;17.17;65.07
81274;BME280;70753;47.908;11.274;2023-07-28T04:04:29;94277.59;;;17.16;64.63
81274;BME280;70753;47.908;11.274;2023-07-28T04:06:55;94273.22;;;17.24;64.64
81274;BME280;70753;47.908;11.274;2023-07-28T04:09:20;94273.00;;;17.41;63.70
81274;BME280;70753;47.908;11.274;2023-07-28T04:11:46;94262.31;;;17.44;63.16
81274;BME280;70753;47.908;11.274;2023-07-28T04:14:12;94271.53;;;17.43;63.41
81274;BME280;70753;47.908;11.274;2023-07-28T04:16:38;94268.03;;;17.31;64.58
81274;BME280;70753;47.908;11.274;2023-07-28T04:19:04;94265.03;;;17.32;64.98
81274;BME280;70753;47.908;11.274;2023-07-28T04:21:30;94273.13;;;17.32;65.04
81274;BME280;70753;47.908;11.274;2023-07-28T04:23:55;94267.06;;;17.47;64.61
81274;BME280;70753;47.908;11.274;2023-07-28T04:26:24;94267.50;;;17.49;63.28
81274;BME280;70753;47.908;11.274;2023-07-28T04:28:50;94276.03;;;17.63;61.36
81274;BME280;70753;47.908;11.274;2023-07-28T04:31:15;94273.91;;;17.69;60.60
81274;BME280;70753;47.908;11.274;2023-07-28T04:33:41;94293.66;;;17.61;61.57
81274;BME280;70753;47.908;11.274;2023-07-28T04:36:08;94289.19;;;17.65;62.66
81274;BME280;70753;47.908;11.274;2023-07-28T04:38:34;94290.38;;;17.31;64.71
81274;BME280;70753;47.908;11.274;2023-07-28T04:41:01;94287.00;;;16.98;66.57
81274;BME280;70753;47.908;11.274;2023-07-28T04:43:26;94278.75;;;17.39;65.39
81274;BME280;70753;47.908;11.274;2023-07-28T04:45:52;94274.47;;;17.63;64.51
81274;BME280;70753;47.908;11.274;2023-07-28T04:48:17;94273.56;;;17.71;64.98
81274;BME280;70753;47.908;11.274;2023-07-28T04:50:44;94274.00;;;17.73;64.47
81274;BME280;70753;47.908;11.274;2023-07-28T04:53:11;94272.47;;;17.72;64.84
81274;BME280;70753;47.908;11.274;2023-07-28T04:55:37;94273.75;;;17.90;64.30
81274;BME280;70753;47.908;11.274;2023-07-28T04:58:03;94279.88;;;17.63;65.69
81274;BME280;70753;47.908;11.274;2023-07-28T05:00:28;94289.28;;;17.93;65.09
81274;BME280;70753;47.908;11.274;2023-07-28T05:02:54;94287.31;;;18.05;64.13
81274;BME280;70753;47.908;11.274;2023-07-28T05:05:19;94285.06;;;18.07;63.63
81274;BME280;70753;47.908;11.274;2023-07-28T05:07:45;94293.03;;;18.16;63.42
81274;BME280;70753;47.908;11.274;2023-07-28T05:10:12;94295.50;;;18.21;63.07
81274;BME280;70753;47.908;11.274;2023-07-28T05:12:37;94300.09;;;18.20;62.96
81274;BME280;70753;47.908;11.274;2023-07-28T05:15:04;94311.69;;;18.21;63.14
81274;BME280;70753;47.908;11.274;2023-07-28T05:17:30;94317.78;;;18.06;62.52
81274;BME280;70753;47.908;11.274;2023-07-28T05:19:55;94318.25;;;17.84;64.55
81274;BME280;70753;47.908;11.274;2023-07-28T05:22:21;94313.88;;;17.79;65.13
81274;BME280;70753;47.908;11.274;2023-07-28T05:24:48;94311.72;;;17.97;64.15
81274;BME280;70753;47.908;11.274;2023-07-28T05:27:15;94316.88;;;18.14;61.55
81274;BME280;70753;47.908;11.274;2023-07-28T05:29:40;94326.69;;;18.34;57.24
81274;BME280;70753;47.908;11.274;2023-07-28T05:32:07;94323.41;;;18.40;57.54
81274;BME280;70753;47.908;11.274;2023-07-28T05:34:32;94329.94;;;18.39;56.77
81274;BME280;70753;47.908;11.274;2023-07-28T05:36:58;94327.09;;;18.60;57.34
81274;BME280;70753;47.908;11.274;2023-07-28T05:39:23;94329.31;;;18.70;57.13
81274;BME280;70753;47.908;11.274;2023-07-28T05:41:49;94333.47;;;18.68;55.74
81274;BME280;70753;47.908;11.274;2023-07-28T05:44:16;94339.81;;;18.87;54.64
81274;BME280;70753;47.908;11.274;2023-07-28T05:46:41;94336.97;;;18.68;56.78
81274;BME280;70753;47.908;11.274;2023-07-28T05:49:07;94339.09;;;18.90;55.38
81274;BME280;70753;47.908;11.274;2023-07-28T05:51:32;94345.59;;;19.01;56.67
81274;BME280;70753;47.908;11.274;2023-07-28T05:53:57;94341.06;;;19.05;56.72
81274;BME280;70753;47.908;11.274;2023-07-28T05:56:23;94345.78;;;19.08;58.04
81274;BME280;70753;47.908;11.274;2023-07-28T05:58:49;94352.13;;;19.00;56.96
81274;BME280;70753;47.908;11.274;2023-07-28T06:01:16;94346.56;;;19.25;54.81
81274;BME280;70753;47.908;11.274;2023-07-28T06:03:42;94345.84;;;19.40;53.89
81274;BME280;70753;47.908;11.274;2023-07-28T06:06:07;94332.44;;;19.43;53.28
81274;BME280;70753;47.908;11.274;2023-07-28T06:08:33;94332.84;;;19.61;52.65
81274;BME280;70753;47.908;11.274;2023-07-28T06:10:59;94337.13;;;19.62;53.38
81274;BME280;70753;47.908;11.274;2023-07-28T06:13:24;94346.16;;;19.85;52.60
81274;BME280;70753;47.908;11.274;2023-07-28T06:15:53;94351.66;;;19.88;52.78
81274;BME280;70753;47.908;11.274;2023-07-28T06:18:21;94350.34;;;19.98;53.50
81274;BME280;70753;47.908;11.274;2023-07-28T06:20:47;94350.09;;;19.56;56.36
81274;BME280;70753;47.908;11.274;2023-07-28T06:23:12;94353.31;;;19.93;54.83
81274;BME280;70753;47.908;11.274;2023-07-28T06:25:37;94360.22;;;19.91;54.90
81274;BME280;70753;47.908;11.274;2023-07-28T06:28:04;94355.81;;;20.33;53.22
81274;BME280;70753;47.908;11.274;2023-07-28T06:30:29;94356.34;;;20.07;54.09
81274;BME280;70753;47.908;11.274;2023-07-28T06:32:54;94360.66;;;20.43;53.29
81274;BME280;70753;47.908;11.274;2023-07-28T06:35:21;94367.44;;;20.33;53.33
81274;BME280;70753;47.908;11.274;2023-07-28T06:37:46;94369.78;;;20.35;53.80
81274;BME280;70753;47.908;11.274;2023-07-28T06:40:12;94364.72;;;20.18;54.92
81274;BME280;70753;47.908;11.274;2023-07-28T06:42:37;94369.31;;;20.48;53.95
81274;BME280;70753;47.908;11.274;2023-07-28T06:45:03;94361.59;;;20.50;55.24
81274;BME280;70753;47.908;11.274;2023-07-28T06:47:29;94364.09;;;20.59;53.73
81274;BME280;70753;47.908;11.274;2023-07-28T06:49:54;94367.63;;;20.79;53.17
81274;BME280;70753;47.908;11.274;2023-07-28T06:52:21;94376.28;;;20.88;53.12
81274;BME280;70753;47.908;11.274;2023-07-28T06:54:47;94377.16;;;20.92;53.60
81274;BME280;70753;47.908;11.274;2023-07-28T06:57:12;94376.16;;;20.81;53.86
81274;BME280;70753;47.908;11.274;2023-07-28T06:59:38;94382.44;;;20.85;54.93
81274;BME280;70753;47.908;11.274;2023-07-28T07:02:04;94384.72;;;20.83;54.40
81274;BME280;70753;47.908;11.274;2023-07-28T07:04:29;94371.88;;;21.18;54.55
81274;BME280;70753;47.908;11.274;2023-07-28T07:06:55;94368.72;;;21.35;53.72
81274;BME280;70753;47.908;11.274;2023-07-28T07:09:22;94368.31;;;21.56;53.67
81274;BME280;70753;47.908;11.274;2023-07-28T07:11:47;94368.72;;;21.80;53.35
81274;BME280;70753;47.908;11.274;2023-07-28T07:14:12;94365.00;;;22.11;52.70
81274;BME280;70753;47.908;11.274;2023-07-28T07:16:38;94358.47;;;22.16;53.85
81274;BME280;70753;47.908;11.274;2023-07-28T07:19:03;94361.59;;;22.18;52.76
81274;BME280;70753;47.908;11.274;2023-07-28T07:21:29;94359.75;;;22.51;51.41
81274;BME280;70753;47.908;11.274;2023-07-28T07:23:55;94357.28;;;22.69;51.88
81274;BME280;70753;47.908;11.274;2023-07-28T07:26:22;94362.50;;;23.14;51.02
81274;BME280;70753;47.908;11.274;2023-07-28T07:28:48;94367.97;;;23.18;50.14
81274;BME280;70753;47.908;11.274;2023-07-28T07:31:13;94336.41;;;23.06;50.44
81274;BME280;70753;47.908;11.274;2023-07-28T07:33:39;94363.81;;;23.27;50.65
81274;BME280;70753;47.908;11.274;2023-07-28T07:36:05;94364.75;;;23.09;51.01
81274;BME280;70753;47.908;11.274;2023-07-28T07:38:31;94357.38;;;23.09;51.87
81274;BME280;70753;47.908;11.274;2023-07-28T07:40:56;94364.06;;;23.15;51.14
81274;BME280;70753;47.908;11.274;2023-07-28T07:43:23;94360.50;;;23.11;51.62
81274;BME280;70753;47.908;11.274;2023-07-28T07:45:50;94343.84;;;23.49;50.62
81274;BME280;70753;47.908;11.274;2023-07-28T07:48:15;94347.56;;;23.34;51.42
81274;BME280;70753;47.908;11.274;2023-07-28T07:50:41;94349.22;;;23.42;51.07
81274;BME280;70753;47.908;11.274;2023-07-28T07:53:06;94354.00;;;23.56;50.08
81274;BME280;70753;47.908;11.274;2023-07-28T07:55:32;94360.47;;;23.81;50.49
81274;BME280;70753;47.908;11.274;2023-07-28T07:57:57;94354.41;;;24.02;49.05
81274;BME280;70753;47.908;11.274;2023-07-28T08:00:24;94364.50;;;23.94;48.86
81274;BME280;70753;47.908;11.274;2023-07-28T08:02:50;94358.72;;;24.03;49.31
81274;BME280;70753;47.908;11.274;2023-07-28T08:05:15;94370.66;;;24.35;50.01
81274;BME280;70753;47.908;11.274;2023-07-28T08:07:41;94366.28;;;24.23;48.89
81274;BME280;70753;47.908;11.274;2023-07-28T08:10:07;94368.47;;;24.07;49.85
81274;BME280;70753;47.908;11.274;2023-07-28T08:12:34;94370.25;;;24.33;49.10
81274;BME280;70753;47.908;11.274;2023-07-28T08:15:00;94365.56;;;24.30;49.53
81274;BME280;70753;47.908;11.274;2023-07-28T08:17:26;94361.75;;;24.45;50.23
81274;BME280;70753;47.908;11.274;2023-07-28T08:19:52;94357.19;;;24.63;49.03
81274;BME280;70753;47.908;11.274;2023-07-28T08:22:18;94358.69;;;24.54;48.81
81274;BME280;70753;47.908;11.274;2023-07-28T08:24:43;94363.41;;;24.60;48.97
81274;BME280;70753;47.908;11.274;2023-07-28T08:27:09;94379.03;;;24.67;47.54
81274;BME280;70753;47.908;11.274;2023-07-28T08:29:35;94368.13;;;24.67;47.86
81274;BME280;70753;47.908;11.274;2023-07-28T08:32:02;94365.88;;;24.79;47.46
81274;BME280;70753;47.908;11.274;2023-07-28T08:34:30;94359.69;;;24.89;47.31
81274;BME280;70753;47.908;11.274;2023-07-28T08:36:55;94364.34;;;24.82;47.71
81274;BME280;70753;47.908;11.274;2023-07-28T08:39:21;94389.00;;;25.10;47.50
81274;BME280;70753;47.908;11.274;2023-07-28T08:41:46;94369.03;;;24.92;46.89
81274;BME280;70753;47.908;11.274;2023-07-28T08:44:12;94374.94;;;24.97;47.02
81274;BME280;70753;47.908;11.274;2023-07-28T08:46:37;94372.13;;;24.87;47.04
81274;BME280;70753;47.908;11.274;2023-07-28T08:49:02;94367.53;;;25.08;46.55
81274;BME280;70753;47.908;11.274;2023-07-28T08:51:30;94379.50;;;24.83;47.35
81274;BME280;70753;47.908;11.274;2023-07-28T08:53:55;94372.13;;;24.80;47.01
81274;BME280;70753;47.908;11.274;2023-07-28T08:56:21;94379.56;;;24.90;46.73
81274;BME280;70753;47.908;11.274;2023-07-28T08:58:46;94385.66;;;24.69;46.50
81274;BME280;70753;47.908;11.274;2023-07-28T09:01:12;94389.72;;;24.93;46.83
81274;BME280;70753;47.908;11.274;2023-07-28T09:03:39;94390.22;;;25.30;46.43
81274;BME280;70753;47.908;11.274;2023-07-28T09:06:05;94383.31;;;25.50;45.93
81274;BME280;70753;47.908;11.274;2023-07-28T09:08:32;94398.91;;;25.50;45.31
81274;BME280;70753;47.908;11.274;2023-07-28T09:11:03;94401.06;;;25.05;45.07
81274;BME280;70753;47.908;11.274;2023-07-28T09:13:35;94401.78;;;24.95;44.69
81274;BME280;70753;47.908;11.274;2023-07-28T09:16:01;94391.56;;;24.75;44.03
81274;BME280;70753;47.908;11.274;2023-07-28T09:18:26;94391.34;;;24.43;45.91
81274;BME280;70753;47.908;11.274;2023-07-28T09:20:52;94392.59;;;24.56;46.11
81274;BME280;70753;47.908;11.274;2023-07-28T09:23:27;94391.47;;;24.64;46.20
81274;BME280;70753;47.908;11.274;2023-07-28T09:25:58;94395.06;;;24.75;46.17
81274;BME280;70753;47.908;11.274;2023-07-28T09:28:36;94390.72;;;24.71;46.55
81274;BME280;70753;47.908;11.274;2023-07-28T09:31:03;94393.59;;;24.88;46.12
81274;BME280;70753;47.908;11.274;2023-07-28T09:33:31;94395.50;;;24.84;46.04
81274;BME280;70753;47.908;11.274;2023-07-28T09:35:56;94400.16;;;24.80;45.63
81274;BME280;70753;47.908;11.274;2023-07-28T09:38:27;94396.94;;;24.68;46.09
81274;BME280;70753;47.908;11.274;2023-07-28T09:40:56;94402.31;;;24.54;46.49
81274;BME280;70753;47.908;11.274;2023-07-28T09:43:22;94395.22;;;24.42;46.63
81274;BME280;70753;47.908;11.274;2023-07-28T09:45:48;94398.34;;;24.44;46.26
81274;BME280;70753;47.908;11.274;2023-07-28T09:48:14;94401.06;;;24.44;47.25
81274;BME280;70753;47.908;11.274;2023-07-28T09:50:41;94398.06;;;24.63;47.11
81274;BME280;70753;47.908;11.274;2023-07-28T09:53:09;94391.19;;;24.22;47.25
81274;BME280;70753;47.908;11.274;2023-07-28T09:55:35;94397.53;;;24.36;47.20
81274;BME280;70753;47.908;11.274;2023-07-28T09:58:04;94392.09;;;24.40;46.18
81274;BME280;70753;47.908;11.274;2023-07-28T10:00:33;94392.53;;;24.49;46.57
81274;BME280;70753;47.908;11.274;2023-07-28T10:03:00;94389.88;;;24.63;46.55
81274;BME280;70753;47.908;11.274;2023-07-28T10:05:26;94385.41;;;24.92;46.50
81274;BME280;70753;47.908;11.274;2023-07-28T10:07:53;94394.72;;;24.87;45.82
81274;BME280;70753;47.908;11.274;2023-07-28T10:10:19;94393.94;;;24.80;46.50
81274;BME280;70753;47.908;11.274;2023-07-28T10:12:47;94390.47;;;24.86;46.97
81274;BME280;70753;47.908;11.274;2023-07-28T10:15:14;94389.31;;;24.94;46.65
81274;BME280;70753;47.908;11.274;2023-07-28T10:17:43;94392.25;;;24.68;46.86
81274;BME280;70753;47.908;11.274;2023-07-28T10:20:26;94398.38;;;24.51;47.31
81274;BME280;70753;47.908;11.274;2023-07-28T10:22:52;94410.81;;;24.45;47.24
81274;BME280;70753;47.908;11.274;2023-07-28T10:25:22;94403.78;;;24.44;47.16
81274;BME280;70753;47.908;11.274;2023-07-28T10:27:47;94406.09;;;24.35;47.50
81274;BME280;70753;47.908;11.274;2023-07-28T10:30:17;94401.38;;;24.32;47.60
81274;BME280;70753;47.908;11.274;2023-07-28T10:32:45;94413.03;;;24.29;48.56
81274;BME280;70753;47.908;11.274;2023-07-28T10:35:23;94413.53;;;24.45;47.38
81274;BME280;70753;47.908;11.274;2023-07-28T10:37:48;94408.50;;;24.47;47.49
81274;BME280;70753;47.908;11.274;2023-07-28T10:40:24;94409.22;;;24.41;47.83
81274;BME280;70753;47.908;11.274;2023-07-28T10:42:53;94417.38;;;24.37;47.63
81274;BME280;70753;47.908;11.274;2023-07-28T10:45:23;94413.41;;;24.31;47.94
81274;BME280;70753;47.908;11.274;2023-07-28T10:47:50;94414.66;;;24.41;47.64
81274;BME280;70753;47.908;11.274;2023-07-28T10:50:16;94417.81;;;24.43;47.48
81274;BME280;70753;47.908;11.274;2023-07-28T10:52:43;94415.06;;;24.39;47.36
81274;BME280;70753;47.908;11.274;2023-07-28T10:55:13;94412.97;;;24.22;47.83
81274;BME280;70753;47.908;11.274;2023-07-28T10:57:38;94423.56;;;24.30;47.55
81274;BME280;70753;47.908;11.274;2023-07-28T11:00:04;94416.25;;;24.45;47.42
81274;BME280;70753;47.908;11.274;2023-07-28T11:02:32;94418.13;;;24.37;46.64
81274;BME280;70753;47.908;11.274;2023-07-28T11:04:57;94414.19;;;24.28;48.12
81274;BME280;70753;47.908;11.274;2023-07-28T11:07:23;94406.91;;;24.46;47.48
81274;BME280;70753;47.908;11.274;2023-07-28T11:09:50;94408.97;;;24.63;46.34
81274;BME280;70753;47.908;11.274;2023-07-28T11:12:15;94407.03;;;24.60;47.32
81274;BME280;70753;47.908;11.274;2023-07-28T11:14:41;94408.69;;;24.75;46.39
81274;BME280;70753;47.908;11.274;2023-07-28T11:17:06;94400.38;;;24.54;47.52
81274;BME280;70753;47.908;11.274;2023-07-28T11:19:33;94408.28;;;25.49;45.63
81274;BME280;70753;47.908;11.274;2023-07-28T11:21:59;94388.84;;;26.03;45.75
81274;BME280;70753;47.908;11.274;2023-07-28T11:24:24;94399.81;;;26.45;42.94
81274;BME280;70753;47.908;11.274;2023-07-28T11:26:50;94397.34;;;27.04;41.92
81274;BME280;70753;47.908;11.274;2023-07-28T11:29:16;94395.28;;;27.43;41.79
81274;BME280;70753;47.908;11.274;2023-07-28T11:31:43;94402.03;;;27.10;41.18
81274;BME280;70753;47.908;11.274;2023-07-28T11:34:13;94398.25;;;26.51;41.32
81274;BME280;70753;47.908;11.274;2023-07-28T11:36:39;94389.59;;;26.71;41.58
81274;BME280;70753;47.908;11.274;2023-07-28T11:39:06;94389.59;;;26.88;40.77
81274;BME280;70753;47.908;11.274;2023-07-28T11:41:32;94398.94;;;27.05;40.95
81274;BME280;70753;47.908;11.274;2023-07-28T11:43:58;94387.25;;;26.87;40.32
81274;BME280;70753;47.908;11.274;2023-07-28T11:46:34;94394.34;;;26.45;41.20
81274;BME280;70753;47.908;11.274;2023-07-28T11:49:08;94387.31;;;26.44;40.48
81274;BME280;70753;47.908;11.274;2023-07-28T11:51:37;94391.22;;;26.36;41.81
81274;BME280;70753;47.908;11.274;2023-07-28T11:54:04;94383.00;;;26.54;42.01
81274;BME280;70753;47.908;11.274;2023-07-28T11:56:31;94394.69;;;26.69;41.02
81274;BME280;70753;47.908;11.274;2023-07-28T11:58:56;94382.97;;;26.79;39.58
81274;BME280;70753;47.908;11.274;2023-07-28T12:01:23;94377.09;;;26.84;41.01
81274;BME280;70753;47.908;11.274;2023-07-28T12:03:48;94383.28;;;27.09;38.83
81274;BME280;70753;47.908;11.274;2023-07-28T12:06:14;94387.97;;;27.12;39.44
81274;BME280;70753;47.908;11.274;2023-07-28T12:08:39;94380.16;;;27.07;40.35
81274;BME280;70753;47.908;11.274;2023-07-28T12:11:11;94387.91;;;27.22;40.14
81274;BME280;70753;47.908;11.274;2023-07-28T12:13:47;94386.38;;;27.18;40.04
81274;BME280;70753;47.908;11.274;2023-07-28T12:16:38;94380.91;;;27.18;39.38
81274;BME280;70753;47.908;11.274;2023-07-28T12:19:04;94372.72;;;27.14;40.24
81274;BME280;70753;47.908;11.274;2023-07-28T12:21:29;94381.19;;;27.41;39.06
81274;BME280;70753;47.908;11.274;2023-07-28T12:23:54;94378.63;;;27.82;38.49
81274;BME280;70753;47.908;11.274;2023-07-28T12:26:21;94390.75;;;27.84;38.06
81274;BME280;70753;47.908;11.274;2023-07-28T12:28:47;94385.78;;;27.62;38.24
81274;BME280;70753;47.908;11.274;2023-07-28T12:31:12;94392.50;;;27.50;37.44
81274;BME280;70753;47.908;11.274;2023-07-28T12:33:37;94391.00;;;27.28;38.43
81274;BME280;70753;47.908;11.274;2023-07-28T12:36:03;94397.25;;;27.32;38.54
81274;BME280;70753;47.908;11.274;2023-07-28T12:38:29;94405.19;;;26.98;39.35
81274;BME280;70753;47.908;11.274;2023-07-28T12:40:54;94401.31;;;26.68;39.20
81274;BME280;70753;47.908;11.274;2023-07-28T12:43:21;94411.13;;;26.33;39.95
81274;BME280;70753;47.908;11.274;2023-07-28T12:45:47;94399.00;;;26.03;40.99